createdAt,value
2023-04-05T03:11:18.725Z,17.15
2023-04-05T03:13:58.044Z,19.53
2023-04-05T03:16:55.385Z,24.70
2023-04-05T03:19:46.024Z,20.67
2023-04-05T03:22:25.251Z,24.63
2023-04-05T03:25:19.768Z,23.40
2023-04-05T03:28:10.993Z,26.67
2023-04-05T03:31:06.795Z,24.60
2023-04-05T03:33:44.310Z,27.97
2023-04-05T03:36:20.005Z,25.27
2023-04-05T03:39:00.552Z,24.97
2023-04-05T03:41:33.431Z,22.70
2023-04-05T03:44:17.350Z,23.60
2023-04-05T03:47:04.340Z,21.17
2023-04-05T03:49:57.530Z,27.50
2023-04-05T03:52:27.219Z,28.77
2023-04-05T03:54:59.172Z,29.23
2023-04-05T03:57:32.877Z,31.93
2023-04-05T04:00:21.221Z,28.87
2023-04-05T04:03:09.527Z,30.63
2023-04-05T04:05:49.412Z,34.20
2023-04-05T04:08:27.638Z,31.67
2023-04-05T04:11:26.105Z,26.67
2023-04-05T04:14:19.275Z,31.87
2023-04-05T04:17:33.650Z,30.40
2023-04-05T04:20:18.444Z,31.60
2023-04-05T04:23:12.337Z,34.73
2023-04-05T04:26:11.905Z,32.23
2023-04-05T04:28:59.691Z,31.60
2023-04-05T04:31:48.848Z,29.13
2023-04-05T04:34:46.200Z,31.93
2023-04-05T04:37:55.127Z,31.17
2023-04-05T04:40:47.761Z,30.33
2023-04-05T04:43:30.486Z,31.60
2023-04-05T04:46:43.178Z,31.30
2023-04-05T04:49:53.032Z,32.30
2023-04-05T04:52:39.208Z,40.43
2023-04-05T04:55:26.272Z,34.63
2023-04-05T04:58:03.019Z,47.17
2023-04-05T05:00:44.797Z,35.60
2023-04-05T05:03:17.483Z,40.00
2023-04-05T05:05:48.862Z,36.13
2023-04-05T05:08:26.258Z,32.60
2023-04-05T05:11:02.666Z,36.00
2023-04-05T05:13:53.190Z,42.77
2023-04-05T05:16:40.318Z,33.37
2023-04-05T05:19:15.310Z,35.10
2023-04-05T05:22:11.564Z,33.30
2023-04-05T05:24:55.206Z,31.80
2023-04-05T05:27:37.237Z,37.47
2023-04-05T05:30:20.937Z,31.87
2023-04-05T05:33:00.230Z,35.47
2023-04-05T05:35:49.555Z,27.80
2023-04-05T05:38:55.828Z,30.27
2023-04-05T05:41:38.527Z,35.57
2023-04-05T05:44:19.682Z,24.97
2023-04-05T05:46:50.943Z,28.20
2023-04-05T05:49:44.645Z,29.83
2023-04-05T05:52:27.049Z,25.73
2023-04-05T05:55:04.026Z,24.93
2023-04-05T05:58:05.157Z,23.90
2023-04-05T06:00:50.753Z,29.03
2023-04-05T06:03:34.158Z,22.43
2023-04-05T06:06:12.422Z,22.80
2023-04-05T06:08:49.794Z,31.17
2023-04-05T06:11:53.197Z,30.33
2023-04-05T06:14:35.087Z,25.13
2023-04-05T06:17:23.785Z,30.87
2023-04-05T06:20:12.837Z,39.67
2023-04-05T06:23:00.902Z,33.00
2023-04-05T06:25:35.588Z,31.30
2023-04-05T06:28:18.447Z,39.03
2023-04-05T06:31:27.945Z,40.30
2023-04-05T06:34:52.517Z,34.27
2023-04-05T06:37:29.401Z,28.40
2023-04-05T06:40:04.042Z,27.10
2023-04-05T06:42:40.080Z,34.10
2023-04-05T06:45:19.044Z,34.40
2023-04-05T06:47:59.644Z,35.67
2023-04-05T06:51:01.446Z,39.63
2023-04-05T06:53:33.810Z,23.33
2023-04-05T06:56:12.716Z,18.63
2023-04-05T06:58:48.546Z,21.33
2023-04-05T07:01:37.368Z,19.80
2023-04-05T07:04:17.317Z,24.37
2023-04-05T07:07:32.583Z,25.20
2023-04-05T07:10:07.911Z,19.40
2023-04-05T07:12:51.777Z,17.07
2023-04-05T07:15:49.006Z,16.80
2023-04-05T07:19:01.897Z,17.43
2023-04-05T07:21:36.887Z,15.57
2023-04-05T07:24:21.828Z,24.83
2023-04-05T07:27:08.250Z,19.10
2023-04-05T07:30:03.589Z,18.00
2023-04-05T07:32:56.069Z,27.63
2023-04-05T07:35:52.686Z,20.70
2023-04-05T07:38:45.226Z,17.83
2023-04-05T07:41:24.218Z,15.83
2023-04-05T07:44:35.174Z,12.30
2023-04-05T07:47:27.869Z,12.10
2023-04-05T07:50:13.554Z,12.13
2023-04-05T07:52:55.722Z,11.30
2023-04-05T07:55:49.837Z,12.40
2023-04-05T07:58:53.186Z,11.07
2023-04-05T08:01:24.060Z,10.73
2023-04-05T08:04:03.484Z,9.53
2023-04-05T08:06:40.881Z,12.43
2023-04-05T08:09:26.441Z,15.17
2023-04-05T08:14:58.503Z,11.67
2023-04-05T08:17:32.130Z,11.00
2023-04-05T08:20:22.250Z,12.13
2023-04-05T08:22:55.777Z,11.10
2023-04-05T08:25:46.043Z,9.93
2023-04-05T08:28:19.800Z,12.80
2023-04-05T08:30:56.586Z,8.87
2023-04-05T08:33:36.207Z,5.77
2023-04-05T08:36:30.698Z,13.00
2023-04-05T08:39:06.382Z,12.63
2023-04-05T08:41:51.681Z,13.73
2023-04-05T08:44:32.188Z,9.43
2023-04-05T08:47:18.992Z,14.97
2023-04-05T08:49:53.267Z,9.37
2023-04-05T08:52:27.180Z,80.57
2023-04-05T08:55:25.746Z,15.73
2023-04-05T08:58:02.213Z,18.90
2023-04-05T09:00:48.877Z,25.37
2023-04-05T09:03:26.230Z,9.43
2023-04-05T09:06:05.738Z,7.07
2023-04-05T09:08:36.552Z,7.13
2023-04-05T09:11:24.030Z,8.03
2023-04-05T09:14:10.385Z,6.57
2023-04-05T09:16:56.180Z,7.63
2023-04-05T09:19:26.093Z,7.50
2023-04-05T09:22:09.555Z,5.90
2023-04-05T09:24:52.224Z,14.57
2023-04-05T09:27:32.038Z,10.53
2023-04-05T09:30:01.775Z,6.37
2023-04-05T09:32:42.622Z,7.10
2023-04-05T09:35:29.124Z,6.80
2023-04-05T09:38:01.042Z,6.37
2023-04-05T09:40:59.604Z,7.00
2023-04-05T09:43:40.051Z,7.13
2023-04-05T09:46:35.853Z,11.83
2023-04-05T09:49:10.345Z,11.52
2023-04-05T09:51:52.323Z,9.17
2023-04-05T09:54:24.285Z,5.28
2023-04-05T09:56:58.354Z,7.30
2023-04-05T09:59:34.108Z,9.38
2023-04-05T10:02:19.239Z,7.35
2023-04-05T10:04:55.315Z,4.82
2023-04-05T10:07:33.670Z,5.57
2023-04-05T10:10:09.687Z,5.68
2023-04-05T10:12:47.260Z,6.67
2023-04-05T10:15:25.637Z,6.72
2023-04-05T10:18:20.584Z,5.13
2023-04-05T10:20:55.045Z,9.40
2023-04-05T10:23:36.381Z,6.60
2023-04-05T10:26:52.378Z,4.17
2023-04-05T10:29:30.982Z,6.33
2023-04-05T10:32:19.196Z,6.03
2023-04-05T10:35:09.087Z,9.63
2023-04-05T10:38:17.426Z,6.63
2023-04-05T10:40:55.798Z,7.17
2023-04-05T10:43:28.619Z,10.57
2023-04-05T10:46:17.624Z,6.27
2023-04-05T10:48:55.405Z,5.53
2023-04-05T10:51:32.029Z,5.47
2023-04-05T10:54:46.651Z,7.47
2023-04-05T10:57:25.173Z,5.93
2023-04-05T11:00:08.452Z,4.77
2023-04-05T11:02:55.363Z,5.23
2023-04-05T11:05:37.997Z,7.07
2023-04-05T11:08:15.382Z,4.70
2023-04-05T11:10:56.567Z,6.30
2023-04-05T11:13:53.547Z,10.47
2023-04-05T11:16:42.405Z,8.82
2023-04-05T11:19:14.411Z,5.90
2023-04-05T11:21:48.683Z,5.30
2023-04-05T11:24:21.600Z,4.80
2023-04-05T11:27:04.969Z,6.60
2023-04-05T11:29:52.099Z,5.28
2023-04-05T11:32:25.979Z,7.68
2023-04-05T11:35:11.585Z,8.10
2023-04-05T11:38:11.325Z,6.20
2023-04-05T11:41:15.272Z,5.65
2023-04-05T11:44:34.543Z,8.55
2023-04-05T11:47:07.649Z,6.47
2023-04-05T11:49:40.825Z,6.47
2023-04-05T11:52:19.894Z,6.57
2023-04-05T11:55:05.987Z,7.23
2023-04-05T11:57:36.961Z,8.17
2023-04-05T12:00:29.710Z,5.13
2023-04-05T12:03:09.521Z,8.23
2023-04-05T12:06:03.197Z,7.10
2023-04-05T12:08:42.246Z,5.20
2023-04-05T12:11:32.575Z,9.48
2023-04-05T12:14:05.325Z,7.32
2023-04-05T12:17:05.250Z,7.78
2023-04-05T12:19:42.677Z,4.97
2023-04-05T12:22:14.392Z,5.63
2023-04-05T12:25:16.655Z,7.85
2023-04-05T12:28:22.904Z,10.98
2023-04-05T12:31:05.420Z,5.88
2023-04-05T12:33:55.776Z,8.00
2023-04-05T12:36:37.369Z,8.43
2023-04-05T12:39:11.976Z,6.47
2023-04-05T12:41:58.705Z,6.00
2023-04-05T12:44:38.621Z,13.18
2023-04-05T12:47:15.365Z,5.05
2023-04-05T12:49:47.931Z,6.93
2023-04-05T12:52:23.263Z,6.22
2023-04-05T12:54:58.285Z,6.75
2023-04-05T12:57:34.524Z,3.70
2023-04-05T13:00:12.657Z,5.03
2023-04-05T13:02:53.884Z,8.15
2023-04-05T13:05:28.220Z,6.28
2023-04-05T13:08:01.408Z,6.88
2023-04-05T13:10:32.192Z,5.60
2023-04-05T13:13:01.232Z,9.53
2023-04-05T13:15:44.808Z,6.93
2023-04-05T13:18:33.010Z,6.85
2023-04-05T13:21:35.475Z,6.00
2023-04-05T13:24:13.014Z,5.63
2023-04-05T13:27:01.459Z,6.60
2023-04-05T13:29:56.350Z,5.70
2023-04-05T13:32:45.263Z,8.15
2023-04-05T13:35:38.516Z,5.63
2023-04-05T13:41:31.661Z,8.40
2023-04-05T13:44:12.976Z,5.50
2023-04-05T13:47:12.161Z,8.03
2023-04-05T13:49:58.037Z,5.53
2023-04-05T13:52:45.300Z,6.27
2023-04-05T13:55:16.664Z,6.68
2023-04-05T13:58:26.787Z,7.68
2023-04-05T14:01:19.689Z,7.20
2023-04-05T14:04:07.715Z,7.72
2023-04-05T14:06:53.815Z,7.07
2023-04-05T14:09:33.060Z,8.32
2023-04-05T14:12:10.610Z,10.53
2023-04-05T14:14:54.559Z,6.87
2023-04-05T14:17:44.038Z,7.37
2023-04-05T14:20:29.907Z,7.37
2023-04-05T14:23:06.596Z,7.97
2023-04-05T14:26:04.379Z,7.97
2023-04-05T14:28:46.701Z,7.80
2023-04-05T14:31:18.799Z,7.87
2023-04-05T14:34:20.348Z,9.17
2023-04-05T14:36:58.498Z,5.03
2023-04-05T14:39:42.700Z,7.47
2023-04-05T14:42:34.166Z,7.83
2023-04-05T14:45:58.524Z,7.30
2023-04-05T14:48:47.918Z,12.03
2023-04-05T14:51:32.010Z,7.00
2023-04-05T14:54:19.929Z,8.07
2023-04-05T14:57:05.968Z,9.40
2023-04-05T14:59:37.502Z,13.63
2023-04-05T15:02:21.439Z,6.83
2023-04-05T15:05:01.515Z,7.17
2023-04-05T15:07:46.580Z,12.00
2023-04-05T15:10:18.630Z,9.97
2023-04-05T15:12:53.232Z,7.63
2023-04-05T15:15:30.403Z,7.30
2023-04-05T15:18:02.415Z,10.00
2023-04-05T15:20:48.942Z,5.57
2023-04-05T15:23:29.626Z,7.70
2023-04-05T15:26:13.644Z,6.50
2023-04-05T15:28:47.971Z,5.67
2023-04-05T15:31:22.755Z,6.10
2023-04-05T15:34:26.597Z,9.07
2023-04-05T15:36:59.138Z,7.27
2023-04-05T15:39:34.880Z,5.30
2023-04-05T15:42:19.900Z,6.53
2023-04-05T15:44:48.685Z,5.27
2023-04-05T15:47:23.617Z,4.10
2023-04-05T15:50:20.633Z,6.97
2023-04-05T15:52:53.488Z,6.37
2023-04-05T15:55:35.119Z,6.93
2023-04-05T15:58:12.670Z,3.20
2023-04-05T16:00:50.131Z,8.77
2023-04-05T16:03:27.641Z,9.90
2023-04-05T16:06:12.198Z,5.77
2023-04-05T16:08:44.591Z,8.40
2023-04-05T16:11:41.688Z,10.87
2023-04-05T16:14:20.172Z,5.77
2023-04-05T16:17:12.132Z,6.93
2023-04-05T16:19:41.492Z,9.27
2023-04-05T16:22:23.664Z,8.57
2023-04-05T16:25:17.651Z,8.27
2023-04-05T16:28:14.767Z,6.10
2023-04-05T16:30:55.317Z,9.60
2023-04-05T16:33:52.412Z,5.60
2023-04-05T16:36:24.252Z,6.00
2023-04-05T16:39:14.118Z,8.37
2023-04-05T16:41:46.171Z,7.67
2023-04-05T16:44:22.036Z,6.60
2023-04-05T16:46:57.890Z,5.77
2023-04-05T16:49:45.507Z,6.13
2023-04-05T16:52:21.698Z,14.30
2023-04-05T16:54:59.093Z,20.23
2023-04-05T16:57:43.371Z,32.83
2023-04-05T17:00:21.088Z,56.10
2023-04-05T17:02:54.963Z,76.63
2023-04-05T17:05:41.405Z,49.73
2023-04-05T17:11:24.403Z,87.10
2023-04-05T17:14:00.160Z,38.13
2023-04-05T17:16:41.056Z,43.63
2023-04-05T17:19:19.594Z,26.33
2023-04-05T17:22:17.287Z,67.10
2023-04-05T17:25:01.276Z,38.90
2023-04-05T17:27:41.059Z,28.30
2023-04-05T17:30:29.888Z,21.30
2023-04-05T17:33:04.571Z,54.33
2023-04-05T17:35:35.351Z,40.00
2023-04-05T17:38:08.716Z,78.97
2023-04-05T17:40:39.008Z,70.27
2023-04-05T17:43:18.436Z,44.40
2023-04-05T17:46:00.541Z,35.93
2023-04-05T17:48:40.245Z,41.50
2023-04-05T17:51:09.732Z,46.73
2023-04-05T17:53:43.620Z,69.20
2023-04-05T17:56:15.495Z,79.13
2023-04-05T17:58:46.062Z,67.27
2023-04-05T18:01:28.859Z,46.40
2023-04-05T18:04:14.735Z,40.70
2023-04-05T18:06:50.424Z,44.50
2023-04-05T18:09:30.992Z,29.37
2023-04-05T18:12:05.584Z,63.30
2023-04-05T18:14:43.254Z,71.03
2023-04-05T18:17:15.582Z,59.77
2023-04-05T18:19:45.322Z,111.77
2023-04-05T18:22:24.091Z,100.73
2023-04-05T18:24:52.745Z,40.63
2023-04-05T18:27:47.572Z,44.43
2023-04-05T18:30:48.165Z,41.43
2023-04-05T18:33:22.627Z,72.90
2023-04-05T18:36:14.158Z,81.10
2023-04-05T18:39:14.631Z,108.93
2023-04-05T18:41:55.102Z,108.23
2023-04-05T18:44:37.732Z,127.67
2023-04-05T18:47:34.052Z,123.73
2023-04-05T18:50:22.477Z,127.13
2023-04-05T18:52:59.420Z,76.03
2023-04-05T18:55:48.356Z,94.40
2023-04-05T18:58:28.724Z,89.20
2023-04-05T19:01:14.406Z,52.97
2023-04-05T19:04:11.431Z,36.60
2023-04-05T19:06:43.456Z,34.50
2023-04-05T19:09:18.416Z,36.67
2023-04-05T19:12:08.326Z,50.33
2023-04-05T19:14:56.593Z,46.43
2023-04-05T19:17:42.463Z,53.77
2023-04-05T19:20:30.880Z,66.50
2023-04-05T19:23:07.709Z,48.50
2023-04-05T19:25:52.866Z,37.33
2023-04-05T19:28:31.592Z,41.77
2023-04-05T19:31:02.512Z,59.73
2023-04-05T19:34:07.709Z,57.70
2023-04-05T19:37:07.863Z,49.20
2023-04-05T19:39:44.857Z,57.63
2023-04-05T19:42:19.725Z,85.97
2023-04-05T19:44:58.891Z,53.20
2023-04-05T19:47:35.709Z,25.50
2023-04-05T19:50:15.998Z,35.47
2023-04-05T19:52:53.790Z,23.87
2023-04-05T19:55:40.181Z,32.10
2023-04-05T19:58:15.254Z,45.17
2023-04-05T20:00:55.335Z,50.00
2023-04-05T20:03:43.948Z,38.07
2023-04-05T20:06:18.136Z,29.10
2023-04-05T20:09:01.089Z,24.30
2023-04-05T20:11:33.210Z,21.73
2023-04-05T20:14:18.276Z,24.17
2023-04-05T20:16:49.850Z,22.40
2023-04-05T20:19:31.402Z,24.10
2023-04-05T20:22:02.692Z,22.50
2023-04-05T20:24:35.721Z,29.03
2023-04-05T20:27:43.682Z,27.80
2023-04-05T20:30:13.618Z,25.07
2023-04-05T20:32:56.508Z,22.23
2023-04-05T20:35:33.428Z,29.93
2023-04-05T20:38:22.418Z,22.77
2023-04-05T20:41:35.303Z,25.07
2023-04-05T20:44:03.225Z,25.48
2023-04-05T20:46:50.661Z,23.83
2023-04-05T20:49:31.927Z,28.57
2023-04-05T20:52:14.168Z,25.60
2023-04-05T20:54:54.302Z,21.93
2023-04-05T20:57:55.846Z,19.97
2023-04-05T21:00:44.616Z,20.80
2023-04-05T21:03:15.504Z,27.23
2023-04-05T21:05:47.658Z,24.37
2023-04-05T21:08:20.531Z,21.30
2023-04-05T21:11:03.169Z,19.90
2023-04-05T21:13:55.362Z,22.90
2023-04-05T21:16:25.557Z,20.17
2023-04-05T21:18:58.689Z,22.57
2023-04-05T21:21:38.252Z,22.10
2023-04-05T21:24:22.552Z,20.80
2023-04-05T21:27:26.967Z,19.77
2023-04-05T21:30:10.663Z,20.57
2023-04-05T21:32:41.398Z,22.00
2023-04-05T21:35:23.775Z,21.27
2023-04-05T21:37:59.288Z,23.30
2023-04-05T21:40:38.506Z,24.00
2023-04-05T21:43:13.315Z,23.47
2023-04-05T21:45:56.156Z,24.80
2023-04-05T21:48:29.205Z,26.27
2023-04-05T21:51:02.732Z,25.80
2023-04-05T21:53:33.453Z,23.80
2023-04-05T21:56:06.036Z,22.17
2023-04-05T21:58:37.806Z,24.20
2023-04-05T22:01:14.731Z,23.67
2023-04-05T22:03:52.283Z,22.93
2023-04-05T22:06:56.164Z,22.53
2023-04-05T22:09:28.182Z,20.03
2023-04-05T22:12:01.816Z,20.57
2023-04-05T22:14:47.953Z,19.70
2023-04-05T22:17:21.752Z,23.37
2023-04-05T22:19:57.236Z,25.13
2023-04-05T22:22:27.830Z,24.87
2023-04-05T22:25:04.898Z,23.10
2023-04-05T22:27:43.847Z,23.03
2023-04-05T22:30:24.323Z,25.47
2023-04-05T22:32:58.171Z,32.37
2023-04-05T22:35:30.345Z,34.30
2023-04-05T22:38:05.978Z,27.10
2023-04-05T22:40:46.141Z,27.40
2023-04-05T22:43:19.148Z,25.83
2023-04-05T22:45:52.238Z,30.70
2023-04-05T22:48:28.787Z,26.40
2023-04-05T22:51:01.282Z,24.20
2023-04-05T22:53:34.724Z,23.00
2023-04-05T22:56:06.066Z,24.47
2023-04-05T22:58:45.529Z,21.83
2023-04-05T23:01:27.898Z,22.00
2023-04-05T23:04:05.458Z,26.73
2023-04-05T23:07:02.434Z,29.50
2023-04-05T23:09:30.752Z,32.43
2023-04-05T23:12:04.135Z,23.43
2023-04-05T23:14:37.127Z,18.90
2023-04-05T23:17:15.194Z,22.60
2023-04-05T23:20:13.700Z,20.23
2023-04-05T23:22:44.560Z,21.40
2023-04-05T23:25:15.089Z,14.70
2023-04-05T23:28:02.193Z,19.30
2023-04-05T23:30:35.015Z,17.00
2023-04-05T23:33:14.048Z,17.57
2023-04-05T23:36:04.518Z,16.30
2023-04-05T23:38:37.285Z,15.83
2023-04-05T23:41:12.291Z,15.73
2023-04-05T23:43:42.132Z,18.10
2023-04-05T23:46:13.650Z,14.17
2023-04-05T23:48:46.112Z,16.90
2023-04-05T23:51:21.740Z,13.83
2023-04-05T23:53:59.454Z,13.33
2023-04-05T23:56:32.751Z,17.90
2023-04-05T23:59:15.081Z,16.10
